Querétaro Intercontinental Airport
MMQT : now visible

Airfield :











YOU CAN JOIN US ON...

 
LOGIN :

Register | Disclaimer

   EN    FR    IT 

 









Legend :    VFR   Marginal VFR   IFR   Intensive IFR   Very Intensive IFR
Visi :
Ceiling :
>= 8 km
>= 3000ft
5 to 8 km
1000 to 3000 ft
1500m to 5 km
500 to 1000 ft
800 to 1500m
200 to 500 ft
< 800m
< 200 ft
Symbols :   Thunderstorms  Fog  Heavy snow  Heavy precipitations  Wind > 20 kt






- Airport Elevation : 6296 ft
- IATA code : QRO


MMQT - Querétaro Intercontinental

CURRENT METAR :
  • 232244Z 06012KT 10SM BKN020 22/11 A3017 RMK 8/100

EXPIRED METARs :
  • 232145Z 02007KT 12SM BKN020 23/11 A3017 RMK 8/100
  • 232042Z 10002KT 12SM BKN020 22/10 A3019 RMK 8/100

TAF AMD TAF MMQT
Valid from the 23 at 21:00 until the 24 at 18:00 UTC


232111Z 2321/2418 09010KT P6SM BKN020
TEMPO 2323/2403 5SM RA
FM240300 09006KT P6SM SCT020
TEMPO 2410/2414 5SM HZ BKN015



MET'MAP, your aeronautical weather chart ! - Copyright ORBIFLY December 2007 - Disclaimer

ORBIFLY MET'MAP TEAM :

Programming & Development : Alexandra Zaïnal
Concept & Development : Baudouin d'Aumeries
Co-Development & Prog : Marc-Olivier Méhu
Technical & hardware support : Manuel Goepfert

Contact : metmap@orbifly.com




SOURCES & CREDITS :

   NOAA       Earth
Advisory